Terminal Aerodrome Forecast
Issued by NWS

Home | Current Version | Previous Version | Text Only | Print | Product List | Glossary On
Versions: 1 2 3 4 5 6 7 8 9 10 11 12 13 14 15 16 17
000
FTUS42 KTBW 240559 AAA
TAFPIE
TAF AMD
KPIE 240559Z 2406/2506 10006KT P6SM VCTS FEW020CB SCT250
      TEMPO 2406/2407 3SM TSRA BKN020CB
     FM240800 VRB04KT P6SM FEW030 SCT250
     FM241400 13006KT P6SM FEW025 BKN250
     FM241700 22007KT P6SM VCTS SCT030CB SCT100 BKN250
     FM250100 VRB03KT P6SM SCT015 BKN040=

USA.gov is the U.S. government's official web portal to all federal, state and local government web resources and services.